Flight Number: AVA1268 Duration: 2:30
Departure: Athens Eleftherios Venizelos (LGAV) at 00:25 Distance: 981.975 Nm
Arrival: Frankfurt am Main (EDDF) at 02:55 Equipment: B737

Weather Information
Athens Eleftherios Venizelos International Airport, Greece (LGAV) 37-56N 023-56E Aug 11, 2022 - 01:50 AM EDT / 2022.08.11 0550 UTC
Wind: from the N (360 degrees) at 20 MPH (17 KT):0
Visibility: greater than 7 mile(s):0
Sky conditions: mostly clear Temperature: 78 F (26 C) Dew Point: 60 F (16 C) Relative Humidity: 54% Pressure (altimeter): 29.88 in. Hg (1012 hPa)
ob: LGAV 110550Z 36017KT 9999 FEW025 26/16 Q1012 NOSIG cycle: 6
Sunrise: 03:39 Sunset: 17:19 (UTC)

Frankfurt / M-Flughafen, Germany (EDDF) 50-03N 008-36E 113M Aug 11, 2022 - 01:50 AM EDT / 2022.08.11 0550 UTC
Wind: from the NNE (030 degrees) at 9 MPH (8 KT):0
Visibility: greater than 7 mile(s):0 Temperature: 69 F (21 C) Dew Point: 46 F (8 C) Relative Humidity: 43% Pressure (altimeter): 30.18 in. Hg (1022 hPa)
ob: EDDF 110550Z 03008KT CAVOK 21/08 Q1022 NOSIG cycle: 6
Sunrise: 04:14 Sunset: 18:47 (UTC)

TAF:2022/08/11 06:27 TAF TAF EDDF 110500Z 1106/1212 04008KT CAVOK TEMPO 1110/1117 09013KT

Previous Pireps for this route
Date Flightnr Aircraft Flight time Fuel used Landing rate On time
2017-05-06AVX9737AB7373.2321715-88Charter
(pireps marked green are flown by you)

Route map